Aviation Digital Data Service (ADDS)

Output produced by METARs form (0400 UTC 24 January 2019)
found at http://www.aviationweather.gov/metar/data/
 
Forecast for: KSBA (SANTA BARBARA , CA, US)
Text: KSBA 240235Z 2403/2424 VRB03KT P6SM SCT250
Forecast period: 0300 to 2000 UTC 24 January 2019
Forecast type: FROM: standard forecast or significant change
Winds: variable direction winds at 3 MPH (3 knots; 1.5 m/s)
Visibility: 6 or more miles 10+ km)
Ceiling: at least 12,000 feet AGL
Clouds: scattered clouds at 25000 feet AGL
Weather: no significant weather forecast for this period
Text: FM242000 19006KT P6SM SCT250
Forecast period: 2000 UTC 24 January 2019 to 0000 UTC 25 January 2019
Forecast type: FROM: standard forecast or significant change
Winds: from the S (190 degrees) at 7 MPH (6 knots; 3.1 m/s)
Visibility: 6 or more miles 10+ km)
Ceiling: at least 12,000 feet AGL
Clouds: scattered clouds at 25000 feet AGL
Weather: no significant weather forecast for this period